createdAt,value
2022-08-26T00:05:35.726Z,1013.57
2022-08-26T00:19:35.744Z,1013.58
2022-08-26T00:47:49.743Z,1013.62
2022-08-26T01:01:50.624Z,1013.5
2022-08-26T01:15:50.955Z,1013.47
2022-08-26T01:29:50.971Z,1013.36
2022-08-26T02:02:05.804Z,1013.18
2022-08-26T02:31:26.394Z,1013.01
2022-08-26T02:45:26.461Z,1012.93
2022-08-26T02:59:26.398Z,1012.82
2022-08-26T03:13:26.620Z,1012.83
2022-08-26T03:27:26.762Z,1012.79
2022-08-26T03:41:26.803Z,1012.66
2022-08-26T03:55:26.902Z,1012.68
2022-08-26T04:09:26.948Z,1012.64
2022-08-26T04:24:26.988Z,1012.61
2022-08-26T04:39:27.616Z,1012.61
2022-08-26T04:54:27.037Z,1012.58
2022-08-26T05:09:27.119Z,1012.58
2022-08-26T05:24:27.351Z,1012.64
2022-08-26T05:39:27.092Z,1012.67
2022-08-26T05:54:27.119Z,1012.7
2022-08-26T06:09:27.156Z,1012.84
2022-08-26T06:24:27.539Z,1012.87
2022-08-26T06:39:27.164Z,1012.87
2022-08-26T06:54:27.274Z,1013.01
2022-08-26T07:09:27.263Z,1013.07
2022-08-26T07:24:28.582Z,1013.02
2022-08-26T07:39:27.299Z,1013.11
2022-08-26T07:54:27.344Z,1013.07
2022-08-26T08:09:27.498Z,1013.14
2022-08-26T08:24:27.899Z,1013.15
2022-08-26T08:39:27.884Z,1013
2022-08-26T08:54:27.914Z,1012.92
2022-08-26T09:09:27.919Z,1012.93
2022-08-26T09:25:28.047Z,1012.71
2022-08-26T09:40:28.280Z,1012.61
2022-08-26T09:55:28.106Z,1012.57
2022-08-26T10:11:28.114Z,1012.39
2022-08-26T10:27:28.179Z,1012.22
2022-08-26T10:42:28.786Z,1012.11
2022-08-26T10:58:28.575Z,1011.86
2022-08-26T11:24:41.634Z,1011.66
2022-08-26T11:40:40.550Z,1011.51
2022-08-26T11:56:40.187Z,1011.53
2022-08-26T12:12:40.215Z,1011.38
2022-08-26T12:28:40.329Z,1011.14
2022-08-26T12:44:40.185Z,1011
2022-08-26T12:59:40.224Z,1011.02
2022-08-26T13:14:40.242Z,1010.85
2022-08-26T13:29:40.279Z,1010.64
2022-08-26T13:44:40.259Z,1010.47
2022-08-26T13:59:40.292Z,1010.23
2022-08-26T14:14:40.317Z,1010.19
2022-08-26T14:29:40.382Z,1010.13
2022-08-26T14:44:40.776Z,1010.07
2022-08-26T14:59:40.690Z,1010.05
2022-08-26T15:14:40.789Z,1010.01
2022-08-26T15:29:40.797Z,1010.03
2022-08-26T15:44:41.003Z,1009.91
2022-08-26T16:00:41.013Z,1009.9
2022-08-26T16:16:41.078Z,1010.07
2022-08-26T16:32:41.125Z,1009.87
2022-08-26T16:47:41.163Z,1010.04
2022-08-26T17:02:41.214Z,1010.09
2022-08-26T17:17:41.162Z,1010.17
2022-08-26T17:32:41.173Z,1010.07
2022-08-26T17:47:41.201Z,1010.11
2022-08-26T18:03:41.258Z,1010.19
2022-08-26T18:34:41.325Z,1010.25
2022-08-26T18:48:41.387Z,1010.21
2022-08-26T19:02:41.411Z,1010.11
2022-08-26T19:16:41.420Z,1010.23
2022-08-26T19:30:41.453Z,1010.29
2022-08-26T19:44:41.429Z,1010.22
2022-08-26T19:58:41.409Z,1010.22
2022-08-26T20:12:41.434Z,1010.15
2022-08-26T20:26:41.425Z,1010.09
2022-08-26T20:40:41.479Z,1010.27
2022-08-26T20:54:41.529Z,1010.29
2022-08-26T21:08:42.592Z,1010.4
2022-08-26T21:22:41.488Z,1010.47
2022-08-26T21:36:41.500Z,1010.47
2022-08-26T21:50:41.498Z,1010.49
2022-08-26T22:04:44.575Z,1010.36
2022-08-26T22:18:41.716Z,1010.28
2022-08-26T22:32:41.678Z,1010.29
2022-08-26T22:46:41.855Z,1010.37
2022-08-26T23:00:41.771Z,1010.35
2022-08-26T23:14:41.733Z,1010.26
2022-08-26T23:28:41.778Z,1010.25
2022-08-26T23:42:41.759Z,1010.23
2022-08-26T23:56:41.734Z,1010.36
